Watertown, South Dakota
Current Conditions -  °F | °C
As of 10:12 PM on Sunday 21 Dec 2014 (Local Time) from KATY Reporting Station
Haze Haze  
Wind Chill: 28°   Ceiling: 200
Heat Index: 36°   Visibility: 1.7mi
Dew Point: 34°   Wind: 13mph
Humidity: 93%   Direction: 160°SSE
Pressure: 29.48"   Gusts: NA
Location:  44.9°N, 97.1°W
Report Text: KATY 220412Z AUTO 16011KT 1 3/4SM BR OVC002 02/01 A2948 RMK AO2 T00220011
Loading
Personal Weather Stations






























Interactive Weather Map New forecast layout! Learn more

10-Day Weather Forecast

Advertisements
Track Severe Weather on mobile